Time;durP1;ratioP1;P1;durP2;ratioP2;P2;SDS_P1;SDS_P2;PMS_P1;PMS_P2;Temp;Humidity;BMP_temperature;BMP_pressure;BME280_temperature;BME280_humidity;BME280_pressure;Samples;Min_cycle;Max_cycle;Signal;HPM_P1;HPM_P2
2023/08/23 00:00:31;;;;;;;2.88;2.05;;;29.70;56.90;;;;;;5122838;27;20471;-67
2023/08/23 00:03:00;;;;;;;2.40;1.80;;;29.70;56.90;;;;;;5121690;27;20440;-67
2023/08/23 00:05:26;;;;;;;2.63;2.10;;;29.70;56.80;;;;;;5122915;27;20035;-68
2023/08/23 00:07:51;;;;;;;2.60;2.20;;;29.70;56.90;;;;;;5121742;27;20413;-67
2023/08/23 00:10:17;;;;;;;2.45;2.08;;;29.70;56.80;;;;;;5121658;27;20057;-69
2023/08/23 00:12:43;;;;;;;2.38;1.95;;;29.70;56.80;;;;;;5121187;27;20083;-68
2023/08/23 00:15:09;;;;;;;2.20;1.90;;;29.70;56.90;;;;;;5122595;27;20847;-68
2023/08/23 00:17:34;;;;;;;2.38;2.10;;;29.70;56.80;;;;;;5121874;27;20027;-69
2023/08/23 00:20:00;;;;;;;2.33;1.80;;;29.70;56.80;;;;;;5121666;27;20106;-69
2023/08/23 00:22:28;;;;;;;2.40;1.98;;;29.70;56.80;;;;;;5120998;27;20063;-68
2023/08/23 00:24:53;;;;;;;2.38;1.90;;;29.70;56.90;;;;;;5120899;27;20031;-68
2023/08/23 00:27:19;;;;;;;2.58;2.05;;;29.70;56.80;;;;;;5122131;27;20035;-69
2023/08/23 00:29:45;;;;;;;2.47;1.80;;;29.70;56.80;;;;;;5120784;27;20423;-68
2023/08/23 00:32:10;;;;;;;2.50;2.03;;;29.70;57.40;;;;;;5120079;27;20034;-64
2023/08/23 00:34:36;;;;;;;2.05;1.85;;;29.70;56.80;;;;;;5105718;27;20059;-64
2023/08/23 00:37:02;;;;;;;1.92;1.60;;;29.70;56.90;;;;;;5102467;27;20490;-63
2023/08/23 00:39:28;;;;;;;2.10;1.80;;;29.70;56.90;;;;;;5119440;27;20084;-65
2023/08/23 00:41:53;;;;;;;2.22;2.00;;;29.70;57.40;;;;;;5120560;27;20031;-66
2023/08/23 00:44:19;;;;;;;2.35;2.00;;;29.80;56.90;;;;;;5122433;27;20058;-66
2023/08/23 00:46:45;;;;;;;2.20;1.75;;;29.70;56.80;;;;;;5122512;27;20160;-66
2023/08/23 00:49:11;;;;;;;2.47;1.80;;;29.70;56.80;;;;;;5121465;27;20475;-66
2023/08/23 00:51:37;;;;;;;2.40;2.03;;;29.70;56.80;;;;;;5120044;27;20495;-66
2023/08/23 00:54:03;;;;;;;2.40;1.85;;;29.70;56.80;;;;;;5119727;27;20106;-65
2023/08/23 00:56:30;;;;;;;2.50;1.90;;;29.70;56.80;;;;;;5119159;27;20501;-66
2023/08/23 00:58:56;;;;;;;2.45;1.90;;;29.70;56.90;;;;;;5122054;27;20099;-66
2023/08/23 01:01:21;;;;;;;2.20;1.90;;;29.70;56.80;;;;;;5123918;27;20126;-66
2023/08/23 01:03:49;;;;;;;1.98;1.73;;;29.70;56.80;;;;;;5102428;27;20060;-66
2023/08/23 01:06:29;;;;;;;2.47;1.83;;;29.70;56.90;;;;;;5122839;27;20035;-66
2023/08/23 01:09:09;;;;;;;1.98;1.67;;;29.70;57.40;;;;;;5121189;27;20027;-66
2023/08/23 01:11:46;;;;;;;2.10;1.70;;;29.70;56.80;;;;;;5121435;27;20489;-66
2023/08/23 01:14:46;;;;;;;1.90;1.70;;;29.70;56.90;;;;;;5118723;27;20043;-65
2023/08/23 01:17:15;;;;;;;1.80;1.60;;;29.70;56.90;;;;;;5122026;27;20028;-66
2023/08/23 01:19:48;;;;;;;2.30;1.70;;;29.70;56.90;;;;;;5121296;27;20508;-66
2023/08/23 01:22:18;;;;;;;2.22;1.77;;;29.70;56.90;;;;;;5121216;27;20036;-66
2023/08/23 01:24:44;;;;;;;2.17;1.85;;;29.70;56.90;;;;;;5120872;27;20120;-66
2023/08/23 01:27:10;;;;;;;2.38;2.05;;;29.70;56.90;;;;;;5122233;27;20411;-65
2023/08/23 01:29:36;;;;;;;2.13;1.85;;;29.70;56.90;;;;;;5120565;27;20533;-66
2023/08/23 01:32:22;;;;;;;2.22;1.80;;;29.70;57.40;;;;;;5104122;27;20072;-65
2023/08/23 01:34:55;;;;;;;2.50;2.00;;;29.70;57.40;;;;;;5121702;27;20043;-65
2023/08/23 01:37:23;;;;;;;2.20;2.00;;;29.70;56.90;;;;;;5118910;27;20107;-66
2023/08/23 01:39:53;;;;;;;2.30;1.95;;;29.70;56.90;;;;;;5119923;27;20023;-66
2023/08/23 01:42:21;;;;;;;2.00;1.60;;;29.70;56.90;;;;;;5119488;27;20416;-68
2023/08/23 01:44:50;;;;;;;2.07;1.83;;;29.70;56.90;;;;;;5121582;27;20513;-69
2023/08/23 01:47:16;;;;;;;;;;;29.70;56.90;;;;;;5117936;27;20662;-68
2023/08/23 01:49:42;;;;;;;1.98;1.77;;;29.70;56.90;;;;;;5117370;27;19919;-68
2023/08/23 01:52:07;;;;;;;2.42;2.00;;;29.70;56.80;;;;;;5118928;27;20031;-69
2023/08/23 01:54:33;;;;;;;2.03;1.70;;;29.70;56.80;;;;;;5118879;27;20024;-68
2023/08/23 01:56:58;;;;;;;2.25;1.83;;;29.70;56.80;;;;;;5121213;27;20027;-68
2023/08/23 01:59:24;;;;;;;2.50;2.00;;;29.70;56.90;;;;;;5103636;27;20026;-68
2023/08/23 02:01:50;;;;;;;2.45;1.85;;;29.70;56.90;;;;;;5120112;27;20382;-68
2023/08/23 02:04:17;;;;;;;2.00;1.80;;;29.70;56.80;;;;;;5119003;27;20035;-68
2023/08/23 02:06:44;;;;;;;2.15;1.70;;;29.70;56.80;;;;;;5119637;27;20115;-68
2023/08/23 02:09:09;;;;;;;2.40;1.92;;;29.70;56.80;;;;;;5120714;27;20016;-69
2023/08/23 02:11:36;;;;;;;2.25;1.90;;;29.70;56.80;;;;;;5119012;27;20084;-69
2023/08/23 02:14:02;;;;;;;2.45;1.88;;;29.70;56.90;;;;;;5118328;27;20030;-69
2023/08/23 02:16:28;;;;;;;2.05;1.70;;;29.70;56.80;;;;;;5120882;27;20513;-68
2023/08/23 02:18:54;;;;;;;2.13;1.80;;;29.70;56.80;;;;;;5117858;27;20016;-68
2023/08/23 02:21:20;;;;;;;1.98;1.70;;;29.60;56.80;;;;;;5135637;27;20046;-68
2023/08/23 02:23:45;;;;;;;1.85;1.55;;;29.70;56.80;;;;;;5120775;27;20031;-68
2023/08/23 02:26:11;;;;;;;2.35;1.85;;;29.70;56.90;;;;;;5116328;27;20038;-69
2023/08/23 02:28:37;;;;;;;2.15;1.67;;;29.70;56.80;;;;;;5118586;27;20027;-68
2023/08/23 02:31:03;;;;;;;2.30;2.00;;;29.70;56.80;;;;;;5119209;27;20031;-66
2023/08/23 02:33:29;;;;;;;1.73;1.50;;;29.60;56.80;;;;;;5115786;27;20027;-65
2023/08/23 02:35:55;;;;;;;2.28;1.75;;;29.70;56.80;;;;;;5117080;27;20050;-65
2023/08/23 02:38:20;;;;;;;2.03;1.60;;;29.60;56.80;;;;;;5117655;27;20031;-65
2023/08/23 02:40:46;;;;;;;1.80;1.50;;;29.60;56.80;;;;;;5117697;27;20024;-65
2023/08/23 02:43:12;;;;;;;1.83;1.52;;;29.60;56.80;;;;;;5121857;27;20058;-65
2023/08/23 02:45:41;;;;;;;2.20;1.77;;;29.70;56.80;;;;;;5119114;27;20363;-65
2023/08/23 02:48:09;;;;;;;2.50;1.90;;;29.60;56.80;;;;;;5118470;27;20035;-65
2023/08/23 02:50:34;;;;;;;1.90;1.70;;;29.60;56.80;;;;;;5120313;27;20046;-63
2023/08/23 02:53:00;;;;;;;2.10;1.70;;;29.60;56.80;;;;;;5118731;27;20379;-64
2023/08/23 02:55:26;;;;;;;1.58;1.45;;;29.60;56.80;;;;;;5116254;27;20030;-63
2023/08/23 02:57:51;;;;;;;2.13;1.70;;;29.60;56.80;;;;;;5120888;27;20073;-63
2023/08/23 03:00:17;;;;;;;2.08;1.65;;;29.60;56.80;;;;;;5102149;27;20106;-64
2023/08/23 03:02:43;;;;;;;2.47;1.90;;;29.60;56.80;;;;;;5099786;28;20031;-67
2023/08/23 03:05:08;;;;;;;2.03;1.60;;;29.60;56.80;;;;;;5119468;27;20055;-67
2023/08/23 03:07:34;;;;;;;1.80;1.50;;;29.60;56.80;;;;;;5120538;27;20038;-67
2023/08/23 03:10:00;;;;;;;2.20;1.80;;;29.60;56.80;;;;;;5116260;27;20062;-67
2023/08/23 03:12:25;;;;;;;2.17;1.90;;;29.60;56.80;;;;;;5116732;27;20059;-67
2023/08/23 03:14:51;;;;;;;1.98;1.55;;;29.60;56.80;;;;;;5118549;27;20046;-67
2023/08/23 03:17:16;;;;;;;1.80;1.50;;;29.60;56.80;;;;;;5117436;28;20505;-67
2023/08/23 03:19:42;;;;;;;2.03;1.65;;;29.60;56.70;;;;;;5115809;28;20031;-67
2023/08/23 03:22:08;;;;;;;2.15;1.75;;;29.60;56.80;;;;;;5119727;28;20038;-67
2023/08/23 03:24:33;;;;;;;1.60;1.50;;;29.60;56.80;;;;;;5118591;28;20055;-67
2023/08/23 03:26:59;;;;;;;2.30;1.70;;;29.60;56.80;;;;;;5116960;28;20023;-68
2023/08/23 03:29:24;;;;;;;1.90;1.70;;;29.60;56.80;;;;;;5118444;28;20126;-67
2023/08/23 03:31:50;;;;;;;2.03;1.67;;;29.60;56.80;;;;;;5119705;28;20358;-67
2023/08/23 03:34:16;;;;;;;1.73;1.50;;;29.60;56.80;;;;;;5118223;28;20023;-67
2023/08/23 03:36:41;;;;;;;1.75;1.60;;;29.60;56.70;;;;;;5100492;28;20536;-67
2023/08/23 03:39:07;;;;;;;1.90;1.60;;;29.60;56.80;;;;;;5119245;28;20035;-67
2023/08/23 03:41:32;;;;;;;2.10;1.67;;;29.60;56.70;;;;;;5116164;28;20023;-65
2023/08/23 03:43:58;;;;;;;2.15;1.77;;;29.60;56.80;;;;;;5118664;28;20459;-65
2023/08/23 03:46:25;;;;;;;2.33;1.77;;;29.60;56.80;;;;;;5119684;28;20065;-65
2023/08/23 03:48:51;;;;;;;2.28;2.00;;;29.60;56.70;;;;;;5118446;28;20027;-64
2023/08/23 03:51:17;;;;;;;1.77;1.50;;;29.60;56.80;;;;;;5118720;28;20035;-65
2023/08/23 03:53:42;;;;;;;2.05;1.60;;;29.60;56.70;;;;;;5100873;28;20027;-66
2023/08/23 03:56:08;;;;;;;2.42;1.85;;;29.60;56.70;;;;;;5116943;28;20035;-65
2023/08/23 03:58:35;;;;;;;2.30;1.83;;;29.50;56.70;;;;;;5118524;28;20118;-65
2023/08/23 04:01:00;;;;;;;4.05;2.20;;;29.60;56.80;;;;;;5118360;28;20031;-66
2023/08/23 04:03:26;;;;;;;3.30;2.60;;;29.50;54.30;;;;;;5116993;28;20027;-66
2023/08/23 04:05:52;;;;;;;3.90;2.50;;;29.50;52.20;;;;;;5118753;28;20102;-65
2023/08/23 04:08:17;;;;;;;3.35;2.35;;;29.50;51.40;;;;;;5116336;28;20576;-65
2023/08/23 04:10:47;;;;;;;3.70;2.10;;;29.50;51.50;;;;;;5118340;28;20083;-65
2023/08/23 04:13:13;;;;;;;3.35;2.47;;;29.40;50.90;;;;;;5116710;28;20212;-67
2023/08/23 04:15:41;;;;;;;3.05;2.50;;;29.40;50.60;;;;;;5119768;28;20024;-68
2023/08/23 04:18:07;;;;;;;2.70;2.30;;;29.30;50.30;;;;;;5103190;28;20023;-67
2023/08/23 04:20:32;;;;;;;3.72;2.50;;;29.30;50.20;;;;;;5116663;28;20028;-67
2023/08/23 04:22:58;;;;;;;3.72;2.60;;;29.30;50.30;;;;;;5119050;28;20076;-68
2023/08/23 04:25:23;;;;;;;4.05;2.80;;;29.30;50.50;;;;;;5117374;28;20031;-68
2023/08/23 04:27:49;;;;;;;5.22;2.85;;;29.20;50.70;;;;;;5118162;27;20119;-67
2023/08/23 04:30:15;;;;;;;3.42;2.50;;;29.10;50.80;;;;;;5121545;27;20038;-67
2023/08/23 04:32:40;;;;;;;4.05;2.50;;;29.10;51.10;;;;;;5121852;27;20035;-67
2023/08/23 04:35:06;;;;;;;4.32;2.83;;;29.10;51.10;;;;;;5122619;27;20026;-68
2023/08/23 04:37:32;;;;;;;3.55;2.50;;;29.10;51.20;;;;;;5122074;27;20160;-67
2023/08/23 04:39:57;;;;;;;2.92;2.50;;;29.00;51.20;;;;;;5122116;27;20102;-67
2023/08/23 04:42:23;;;;;;;3.40;2.70;;;29.00;51.30;;;;;;5105430;27;20363;-67
2023/08/23 04:44:49;;;;;;;4.75;2.70;;;29.00;51.40;;;;;;5121529;27;20035;-68
2023/08/23 04:47:14;;;;;;;3.25;2.58;;;28.90;51.50;;;;;;5122638;27;20546;-66
2023/08/23 04:49:40;;;;;;;3.45;2.90;;;28.90;51.50;;;;;;5120649;27;20039;-67
2023/08/23 04:52:06;;;;;;;4.85;2.70;;;28.90;51.50;;;;;;5123177;27;20495;-65
2023/08/23 04:54:31;;;;;;;4.38;2.85;;;28.80;51.30;;;;;;5122092;27;20157;-67
2023/08/23 04:56:57;;;;;;;3.92;3.00;;;28.80;51.40;;;;;;5120976;27;20066;-66
2023/08/23 04:59:23;;;;;;;5.13;2.80;;;28.80;51.70;;;;;;5120876;27;20059;-67
2023/08/23 05:01:48;;;;;;;4.38;3.17;;;28.70;51.80;;;;;;5120000;27;20110;-66
2023/08/23 05:04:14;;;;;;;4.20;2.83;;;28.70;51.90;;;;;;5121382;27;20485;-66
2023/08/23 05:06:40;;;;;;;4.65;2.97;;;28.70;51.90;;;;;;5120396;27;20031;-66
2023/08/23 05:09:05;;;;;;;3.83;2.80;;;28.70;51.80;;;;;;5122303;27;20019;-67
2023/08/23 05:11:31;;;;;;;4.60;3.17;;;28.70;52.00;;;;;;5121703;27;20629;-66
2023/08/23 05:13:57;;;;;;;3.47;2.63;;;28.60;51.60;;;;;;5122258;27;20068;-66
2023/08/23 05:16:23;;;;;;;5.45;3.20;;;28.60;51.70;;;;;;5121927;27;20072;-66
2023/08/23 05:18:48;;;;;;;4.00;2.90;;;28.60;51.80;;;;;;5121699;27;20471;-66
2023/08/23 05:21:14;;;;;;;4.22;3.00;;;28.60;51.80;;;;;;5123529;27;20098;-63
2023/08/23 05:23:40;;;;;;;4.25;3.20;;;28.50;51.70;;;;;;5120801;27;20023;-64
2023/08/23 05:26:05;;;;;;;4.20;2.80;;;28.50;51.40;;;;;;5121375;27;20027;-64
2023/08/23 05:28:32;;;;;;;5.00;3.08;;;28.40;51.50;;;;;;5122346;27;20542;-64
2023/08/23 05:30:58;;;;;;;4.28;3.10;;;28.40;51.80;;;;;;5123347;27;20039;-64
2023/08/23 05:33:23;;;;;;;4.30;3.00;;;28.40;51.90;;;;;;5120535;27;20071;-64
2023/08/23 05:35:49;;;;;;;4.38;3.00;;;28.30;51.90;;;;;;5121698;27;20103;-63
2023/08/23 05:38:15;;;;;;;3.50;2.72;;;28.30;52.00;;;;;;5116752;27;20076;-64
2023/08/23 05:40:40;;;;;;;4.22;3.00;;;28.30;52.20;;;;;;5119150;27;20011;-64
2023/08/23 05:43:07;;;;;;;3.42;2.55;;;28.30;52.50;;;;;;5115240;27;20474;-63
2023/08/23 05:45:33;;;;;;;4.07;2.53;;;28.30;52.50;;;;;;5120103;27;20463;-64
2023/08/23 05:47:59;;;;;;;3.70;2.53;;;28.20;52.50;;;;;;5120829;27;20028;-64
2023/08/23 05:50:25;;;;;;;3.38;2.42;;;28.30;52.70;;;;;;5121434;27;20032;-63
2023/08/23 05:52:50;;;;;;;3.55;2.50;;;28.30;52.80;;;;;;5118684;27;20554;-63
2023/08/23 05:55:16;;;;;;;3.42;2.40;;;28.30;52.90;;;;;;5120313;27;20033;-64
2023/08/23 05:57:42;;;;;;;3.50;2.70;;;28.20;52.90;;;;;;5116449;27;20023;-64
2023/08/23 06:00:09;;;;;;;3.08;2.50;;;28.30;53.00;;;;;;5120079;27;20038;-64
2023/08/23 06:02:35;;;;;;;3.92;2.53;;;28.30;53.10;;;;;;5120454;27;20019;-68
2023/08/23 06:05:02;;;;;;;3.10;2.42;;;28.20;53.10;;;;;;5120505;27;20027;-67
2023/08/23 06:07:28;;;;;;;3.05;2.40;;;28.30;53.20;;;;;;5119036;27;20027;-67
2023/08/23 06:09:54;;;;;;;2.92;2.35;;;28.30;53.20;;;;;;5119513;27;20496;-67
2023/08/23 06:12:19;;;;;;;2.95;2.40;;;28.30;53.30;;;;;;5118071;27;20433;-67
2023/08/23 06:14:46;;;;;;;3.42;2.50;;;28.30;53.30;;;;;;5120190;27;20065;-67
2023/08/23 06:17:12;;;;;;;3.28;2.47;;;28.30;53.40;;;;;;5118489;27;20047;-67
2023/08/23 06:19:38;;;;;;;2.58;2.05;;;28.30;53.40;;;;;;5118276;27;20551;-67
2023/08/23 06:22:03;;;;;;;2.92;2.10;;;28.30;53.50;;;;;;5119516;27;20019;-67
2023/08/23 06:24:29;;;;;;;2.92;2.20;;;28.30;53.50;;;;;;5119239;27;20083;-67
2023/08/23 06:26:55;;;;;;;3.58;2.13;;;28.30;53.60;;;;;;5118256;27;20019;-67
2023/08/23 06:29:20;;;;;;;2.83;2.30;;;28.30;53.60;;;;;;5122137;27;20496;-67
2023/08/23 06:31:46;;;;;;;3.97;2.15;;;28.30;53.60;;;;;;5119111;27;20123;-64
2023/08/23 06:34:11;;;;;;;2.95;2.40;;;28.30;53.60;;;;;;5120199;27;20079;-64
2023/08/23 06:36:37;;;;;;;3.05;2.30;;;28.30;53.70;;;;;;5120547;27;20031;-64
2023/08/23 06:39:03;;;;;;;2.90;2.20;;;28.30;53.70;;;;;;5121235;27;20023;-64
2023/08/23 06:41:28;;;;;;;4.20;2.28;;;28.30;53.70;;;;;;5119183;27;20023;-64
2023/08/23 06:44:01;;;;;;;3.33;2.20;;;28.30;53.80;;;;;;5118606;27;20401;-64
2023/08/23 06:46:28;;;;;;;2.78;2.28;;;28.30;53.80;;;;;;5119231;27;20031;-65
2023/08/23 06:48:54;;;;;;;3.60;2.28;;;28.30;53.80;;;;;;5120399;27;20093;-64
2023/08/23 06:51:20;;;;;;;3.42;2.45;;;28.30;53.90;;;;;;5119785;27;20112;-64
2023/08/23 06:53:47;;;;;;;3.58;2.20;;;28.30;53.90;;;;;;5118867;27;20050;-64
2023/08/23 06:56:13;;;;;;;3.00;2.20;;;28.30;53.90;;;;;;5117762;27;20028;-64
2023/08/23 06:58:39;;;;;;;2.55;1.90;;;28.30;53.90;;;;;;5117867;27;20140;-64
2023/08/23 07:01:07;;;;;;;3.08;2.20;;;28.30;54.00;;;;;;5121696;27;20023;-64
2023/08/23 07:03:33;;;;;;;2.50;2.00;;;28.30;54.00;;;;;;5118641;27;20081;-64
2023/08/23 07:06:02;;;;;;;2.60;2.30;;;28.30;54.00;;;;;;5117706;28;20027;-65
2023/08/23 07:08:28;;;;;;;2.20;1.83;;;28.30;54.00;;;;;;5118714;27;20038;-64
2023/08/23 07:10:53;;;;;;;3.53;2.20;;;28.30;54.10;;;;;;5119011;27;20023;-61
2023/08/23 07:13:19;;;;;;;2.80;2.20;;;28.30;54.10;;;;;;5099834;28;20035;-62
2023/08/23 07:15:44;;;;;;;2.30;2.00;;;28.30;54.10;;;;;;5119142;28;20046;-63
2023/08/23 07:18:10;;;;;;;2.92;2.20;;;28.30;54.10;;;;;;5117644;28;20016;-62
2023/08/23 07:20:35;;;;;;;2.88;2.10;;;28.30;54.20;;;;;;5118505;28;20483;-62
2023/08/23 07:23:02;;;;;;;3.15;2.30;;;28.30;54.20;;;;;;5117362;28;20035;-64
2023/08/23 07:25:28;;;;;;;2.58;2.00;;;28.30;54.20;;;;;;5119968;28;20145;-62
2023/08/23 07:27:53;;;;;;;3.33;2.20;;;28.40;54.30;;;;;;5114716;28;20479;-62
2023/08/23 07:30:19;;;;;;;2.97;2.30;;;28.30;54.20;;;;;;5119980;28;20122;-62
2023/08/23 07:32:45;;;;;;;2.70;2.20;;;28.40;54.30;;;;;;5118245;28;20477;-63
2023/08/23 07:35:10;;;;;;;2.65;2.00;;;28.40;54.30;;;;;;5119281;28;20055;-62
2023/08/23 07:37:36;;;;;;;2.47;2.00;;;28.40;54.30;;;;;;5099941;28;20147;-62
2023/08/23 07:40:04;;;;;;;2.80;2.10;;;28.40;54.40;;;;;;5117565;28;20020;-62
2023/08/23 07:42:30;;;;;;;3.22;2.03;;;28.40;54.30;;;;;;5099980;28;20076;-68
2023/08/23 07:44:55;;;;;;;2.50;1.80;;;28.40;54.40;;;;;;5120052;28;20892;-67
2023/08/23 07:47:21;;;;;;;2.60;2.00;;;28.40;54.40;;;;;;5118754;28;20467;-67
2023/08/23 07:49:46;;;;;;;2.20;1.77;;;28.30;54.30;;;;;;5118052;28;20031;-67
2023/08/23 07:52:12;;;;;;;2.42;1.90;;;28.30;54.40;;;;;;5120210;28;20110;-68
2023/08/23 07:54:38;;;;;;;2.50;2.00;;;28.40;54.40;;;;;;5119079;28;20033;-68
2023/08/23 07:57:04;;;;;;;2.20;1.90;;;28.40;54.40;;;;;;5120103;28;20031;-68
2023/08/23 07:59:29;;;;;;;2.40;1.90;;;28.40;54.40;;;;;;5115650;28;20384;-68
2023/08/23 08:01:55;;;;;;;2.90;2.08;;;28.40;54.50;;;;;;5119492;27;20518;-68
2023/08/23 08:04:20;;;;;;;2.70;2.00;;;28.40;54.50;;;;;;5121467;27;20026;-67
2023/08/23 08:06:46;;;;;;;2.30;2.00;;;28.40;54.50;;;;;;5121739;27;20030;-68
2023/08/23 08:09:12;;;;;;;2.42;2.00;;;28.40;54.50;;;;;;5124206;27;20475;-68
2023/08/23 08:11:37;;;;;;;2.60;2.08;;;28.40;54.50;;;;;;5122024;27;20098;-67
2023/08/23 08:14:03;;;;;;;2.65;2.08;;;28.40;54.60;;;;;;5119509;27;20035;-68
2023/08/23 08:16:28;;;;;;;2.65;2.00;;;28.40;54.50;;;;;;5122449;27;20023;-67
2023/08/23 08:18:54;;;;;;;2.28;1.80;;;28.40;54.50;;;;;;5120978;27;20410;-67
2023/08/23 08:21:20;;;;;;;2.63;1.90;;;28.40;55.10;;;;;;5121938;27;20027;-65
2023/08/23 08:23:47;;;;;;;2.72;2.00;;;28.40;54.50;;;;;;5120806;27;20032;-65
2023/08/23 08:26:13;;;;;;;2.70;1.90;;;28.40;54.60;;;;;;5121683;27;20171;-64
2023/08/23 08:28:42;;;;;;;2.53;1.98;;;28.40;54.60;;;;;;5122751;27;20114;-64
2023/08/23 08:31:08;;;;;;;;;;;28.40;54.60;;;;;;5104217;27;20474;-65
2023/08/23 08:33:34;;;;;;;2.60;1.90;;;28.40;54.60;;;;;;5120247;27;19909;-64
2023/08/23 08:36:00;;;;;;;2.08;1.70;;;28.40;54.60;;;;;;5104426;27;20141;-65
2023/08/23 08:38:25;;;;;;;2.67;2.03;;;28.40;54.60;;;;;;5121224;27;20500;-64
2023/08/23 08:40:51;;;;;;;2.15;1.80;;;28.40;54.60;;;;;;5119405;27;20126;-64
2023/08/23 08:43:18;;;;;;;2.50;2.20;;;28.40;54.60;;;;;;5120959;27;20026;-66
2023/08/23 08:45:44;;;;;;;2.38;1.83;;;28.40;54.60;;;;;;5121885;27;20085;-67
2023/08/23 08:48:10;;;;;;;2.45;2.00;;;28.50;54.70;;;;;;5121047;27;20131;-67
2023/08/23 08:50:37;;;;;;;2.90;2.00;;;28.50;54.70;;;;;;5122696;27;20525;-66
2023/08/23 08:53:09;;;;;;;2.63;1.95;;;28.50;54.70;;;;;;5123774;27;20522;-64
2023/08/23 08:55:35;;;;;;;2.15;1.83;;;28.40;54.60;;;;;;5118661;27;20023;-64
2023/08/23 08:58:02;;;;;;;2.40;1.90;;;28.50;54.70;;;;;;5119193;27;20024;-63
2023/08/23 09:00:28;;;;;;;2.80;1.92;;;28.50;54.70;;;;;;5124874;27;20058;-64
2023/08/23 09:02:55;;;;;;;2.75;2.10;;;28.50;54.70;;;;;;5123690;27;20038;-64
2023/08/23 09:05:22;;;;;;;2.40;1.95;;;28.50;54.70;;;;;;5121829;27;20039;-64
2023/08/23 09:07:49;;;;;;;1.88;1.60;;;28.50;54.70;;;;;;5119687;27;20031;-64
2023/08/23 09:10:15;;;;;;;2.38;1.90;;;28.50;54.80;;;;;;5121422;27;20465;-65
2023/08/23 09:12:40;;;;;;;2.35;1.85;;;28.50;54.70;;;;;;5119202;27;20031;-64
2023/08/23 09:15:07;;;;;;;2.10;1.70;;;28.50;54.80;;;;;;5118855;27;20461;-64
2023/08/23 09:17:36;;;;;;;2.05;1.73;;;28.50;54.80;;;;;;5117982;27;20107;-64
2023/08/23 09:20:09;;;;;;;2.00;1.70;;;28.50;54.70;;;;;;5117932;27;20023;-64
2023/08/23 09:22:35;;;;;;;2.45;1.73;;;28.50;54.70;;;;;;5117468;27;20031;-64
2023/08/23 09:25:04;;;;;;;2.25;1.90;;;28.50;54.70;;;;;;5120413;27;20951;-65
2023/08/23 09:27:30;;;;;;;;;;;28.50;54.80;;;;;;5119619;27;20038;-64
2023/08/23 09:30:01;;;;;;;2.17;1.80;;;28.50;54.70;;;;;;5118552;27;19907;-64
2023/08/23 09:32:27;;;;;;;2.25;1.95;;;28.50;54.80;;;;;;5121130;27;20020;-64
2023/08/23 09:34:53;;;;;;;2.10;1.70;;;28.50;54.80;;;;;;5119963;27;20491;-64
2023/08/23 09:37:18;;;;;;;2.60;2.00;;;28.50;54.80;;;;;;5119858;27;20436;-64
2023/08/23 09:39:44;;;;;;;2.60;1.95;;;28.50;54.80;;;;;;5120070;27;20023;-63
2023/08/23 09:42:14;;;;;;;2.50;1.98;;;28.50;54.80;;;;;;5122123;27;20375;-64
2023/08/23 09:44:43;;;;;;;2.35;1.70;;;28.60;54.90;;;;;;5118712;27;20051;-64
2023/08/23 09:47:13;;;;;;;;;;;28.50;54.80;;;;;;5120933;27;20016;-64
2023/08/23 09:49:43;;;;;;;2.70;1.92;;;28.60;54.90;;;;;;5117940;27;19918;-64
2023/08/23 09:52:10;;;;;;;2.40;1.90;;;28.60;54.90;;;;;;5120841;27;20030;-66
2023/08/23 09:54:52;;;;;;;1.98;1.60;;;28.60;54.90;;;;;;5120238;27;20102;-67
2023/08/23 09:57:19;;;;;;;2.45;1.75;;;28.50;54.80;;;;;;5121216;27;20478;-66
2023/08/23 09:59:45;;;;;;;2.20;1.60;;;28.50;54.80;;;;;;5120507;27;20015;-66
2023/08/23 10:02:11;;;;;;;2.15;1.80;;;28.50;54.80;;;;;;5120585;27;20474;-61
2023/08/23 10:04:41;;;;;;;2.10;1.75;;;28.50;54.80;;;;;;5117978;27;20022;-62
2023/08/23 10:07:08;;;;;;;2.00;1.60;;;28.60;54.90;;;;;;5119869;27;20172;-61
2023/08/23 10:09:38;;;;;;;2.17;1.90;;;28.60;54.90;;;;;;5120293;27;20028;-61
2023/08/23 10:12:05;;;;;;;2.30;1.90;;;28.60;54.90;;;;;;5118270;27;20462;-61
2023/08/23 10:14:33;;;;;;;2.33;1.73;;;28.60;54.90;;;;;;5101927;27;20028;-61
2023/08/23 10:17:02;;;;;;;2.10;1.80;;;28.60;54.90;;;;;;5119287;27;20454;-62
2023/08/23 10:19:28;;;;;;;2.17;1.70;;;28.60;54.90;;;;;;5120698;27;20056;-61
2023/08/23 10:21:53;;;;;;;1.83;1.60;;;28.60;54.90;;;;;;5118182;27;20035;-61
2023/08/23 10:24:30;;;;;;;2.03;1.75;;;28.60;54.90;;;;;;5119383;27;20467;-62
2023/08/23 10:27:03;;;;;;;1.83;1.50;;;28.60;54.90;;;;;;5121115;27;20084;-64
2023/08/23 10:29:30;;;;;;;2.75;1.75;;;28.60;54.90;;;;;;5117162;27;20483;-61
2023/08/23 10:31:57;;;;;;;1.92;1.73;;;28.60;54.90;;;;;;5120038;27;20076;-62
2023/08/23 10:34:27;;;;;;;1.77;1.52;;;28.60;54.90;;;;;;5120237;27;20023;-61
2023/08/23 10:36:55;;;;;;;2.05;1.60;;;28.60;54.90;;;;;;5117615;27;20027;-62
2023/08/23 10:39:24;;;;;;;2.03;1.60;;;28.60;54.90;;;;;;5116912;27;20505;-64
2023/08/23 10:41:52;;;;;;;2.08;1.52;;;28.60;55.00;;;;;;5118359;27;20027;-62
2023/08/23 10:44:18;;;;;;;1.80;1.50;;;28.60;54.90;;;;;;5117971;27;20383;-63
2023/08/23 10:46:44;;;;;;;1.95;1.58;;;28.60;55.00;;;;;;5119817;27;20023;-62
2023/08/23 10:49:13;;;;;;;1.95;1.60;;;28.60;55.00;;;;;;5120144;27;20491;-62
2023/08/23 10:51:42;;;;;;;1.90;1.60;;;28.60;55.00;;;;;;5118512;27;20032;-61
2023/08/23 10:54:14;;;;;;;1.88;1.50;;;28.60;55.00;;;;;;5120127;27;20070;-61
2023/08/23 10:56:40;;;;;;;3.05;1.65;;;28.60;55.00;;;;;;5118920;27;20103;-61
2023/08/23 10:59:09;;;;;;;1.90;1.52;;;28.70;55.10;;;;;;5118881;27;20478;-61
2023/08/23 11:01:37;;;;;;;;;;;28.70;55.10;;;;;;5117883;27;20016;-63
2023/08/23 11:04:03;;;;;;;2.25;1.70;;;28.60;55.00;;;;;;5118467;27;19911;-61
2023/08/23 11:06:30;;;;;;;1.88;1.55;;;28.60;55.00;;;;;;5117879;27;20023;-62
2023/08/23 11:08:57;;;;;;;2.20;1.80;;;28.70;55.10;;;;;;5119962;27;20020;-62
2023/08/23 11:11:27;;;;;;;2.00;1.70;;;28.70;55.10;;;;;;5119736;27;20023;-68
2023/08/23 11:13:53;;;;;;;2.22;1.65;;;28.70;55.10;;;;;;5118201;27;20366;-68
2023/08/23 11:16:19;;;;;;;2.05;1.70;;;28.70;55.20;;;;;;5118391;28;20023;-68
2023/08/23 11:18:45;;;;;;;1.98;1.63;;;28.60;55.10;;;;;;5119735;28;20515;-67
2023/08/23 11:21:10;;;;;;;2.10;1.70;;;28.60;55.10;;;;;;5118189;28;20101;-68
2023/08/23 11:23:37;;;;;;;1.90;1.60;;;28.60;55.20;;;;;;5117362;28;20797;-68
2023/08/23 11:26:04;;;;;;;1.90;1.60;;;28.70;55.30;;;;;;5118960;28;20054;-68
2023/08/23 11:28:30;;;;;;;2.00;1.70;;;28.70;55.30;;;;;;5117202;28;20039;-67
2023/08/23 11:30:58;;;;;;;1.92;1.52;;;28.70;55.30;;;;;;5117206;28;20039;-67
2023/08/23 11:33:24;;;;;;;2.17;1.70;;;28.60;55.20;;;;;;5120628;28;20062;-68
2023/08/23 11:35:50;;;;;;;2.17;1.65;;;28.70;55.30;;;;;;5116303;28;21062;-68
2023/08/23 11:38:16;;;;;;;1.90;1.60;;;28.70;55.30;;;;;;5123408;27;20027;-68
2023/08/23 11:40:44;;;;;;;1.80;1.50;;;28.70;55.30;;;;;;5122808;27;20102;-68
2023/08/23 11:43:14;;;;;;;2.15;1.70;;;28.70;55.30;;;;;;5104224;27;20041;-68
2023/08/23 11:45:41;;;;;;;2.15;1.80;;;28.70;55.30;;;;;;5121175;27;20023;-67
2023/08/23 11:48:10;;;;;;;1.90;1.50;;;28.70;55.30;;;;;;5123559;27;20490;-67
2023/08/23 11:50:37;;;;;;;1.80;1.60;;;28.70;55.30;;;;;;5122919;27;20069;-67
2023/08/23 11:53:05;;;;;;;2.20;1.80;;;28.70;55.30;;;;;;5121387;27;20083;-62
2023/08/23 11:55:33;;;;;;;1.85;1.60;;;28.70;55.30;;;;;;5123498;27;20036;-62
2023/08/23 11:57:59;;;;;;;2.10;1.70;;;28.70;55.30;;;;;;5121928;27;20027;-63
2023/08/23 12:00:25;;;;;;;1.85;1.60;;;28.70;55.30;;;;;;5120653;27;20034;-65
2023/08/23 12:02:52;;;;;;;1.92;1.60;;;28.70;55.30;;;;;;5122028;27;20463;-65
2023/08/23 12:05:19;;;;;;;2.03;1.60;;;28.70;55.30;;;;;;5122445;27;20660;-65
2023/08/23 12:07:45;;;;;;;1.75;1.40;;;28.70;55.40;;;;;;5120591;27;20139;-65
2023/08/23 12:10:11;;;;;;;1.88;1.60;;;28.70;55.30;;;;;;5121870;27;20034;-62
2023/08/23 12:12:38;;;;;;;2.08;1.70;;;28.70;55.30;;;;;;5121785;27;20035;-68
2023/08/23 12:15:04;;;;;;;2.30;1.65;;;28.70;55.30;;;;;;5123552;27;20474;-67
2023/08/23 12:17:30;;;;;;;2.20;1.80;;;28.70;55.40;;;;;;5120215;27;20517;-68
2023/08/23 12:19:56;;;;;;;1.98;1.60;;;28.70;55.40;;;;;;5122459;27;20110;-68
2023/08/23 12:22:22;;;;;;;1.48;1.35;;;28.70;55.40;;;;;;5122060;27;20026;-67
2023/08/23 12:24:47;;;;;;;1.98;1.52;;;28.70;55.40;;;;;;5121218;27;20032;-66
2023/08/23 12:27:13;;;;;;;1.63;1.40;;;28.70;55.40;;;;;;5120550;27;20024;-68
2023/08/23 12:29:41;;;;;;;1.60;1.40;;;28.70;55.40;;;;;;5120742;27;20382;-67
2023/08/23 12:32:07;;;;;;;1.95;1.52;;;28.70;55.40;;;;;;5120561;27;20119;-68
2023/08/23 12:34:33;;;;;;;1.88;1.48;;;28.70;55.40;;;;;;5122374;27;20031;-67
2023/08/23 12:36:59;;;;;;;1.70;1.40;;;28.80;55.50;;;;;;5121915;27;20028;-69
2023/08/23 12:39:25;;;;;;;2.00;1.45;;;28.80;55.50;;;;;;5121240;27;20060;-68
2023/08/23 12:41:51;;;;;;;1.50;1.30;;;28.80;55.50;;;;;;5122318;27;20023;-68
2023/08/23 12:44:16;;;;;;;2.00;1.60;;;28.80;55.50;;;;;;5105384;27;20027;-68